sensor_id;sensor_type;location;lat;lon;timestamp;temperature;humidity
12254;DHT22;6189;52.526;13.390;2022-11-15T00:00:38;8.70;99.90
12254;DHT22;6189;52.526;13.390;2022-11-15T00:03:26;8.70;99.90
12254;DHT22;6189;52.526;13.390;2022-11-15T00:06:12;8.70;99.90
12254;DHT22;6189;52.526;13.390;2022-11-15T00:09:00;8.70;99.90
12254;DHT22;6189;52.526;13.390;2022-11-15T00:11:45;8.70;99.90
12254;DHT22;6189;52.526;13.390;2022-11-15T00:14:31;8.70;99.90
12254;DHT22;6189;52.526;13.390;2022-11-15T00:17:17;8.80;99.90
12254;DHT22;6189;52.526;13.390;2022-11-15T00:20:03;8.80;99.90
12254;DHT22;6189;52.526;13.390;2022-11-15T00:22:48;8.70;99.90
12254;DHT22;6189;52.526;13.390;2022-11-15T00:25:35;8.70;99.90
12254;DHT22;6189;52.526;13.390;2022-11-15T00:28:21;8.70;99.90
12254;DHT22;6189;52.526;13.390;2022-11-15T00:31:09;8.70;99.90
12254;DHT22;6189;52.526;13.390;2022-11-15T00:33:55;8.80;99.90
12254;DHT22;6189;52.526;13.390;2022-11-15T00:36:41;8.80;99.90
12254;DHT22;6189;52.526;13.390;2022-11-15T00:39:26;8.70;99.90
12254;DHT22;6189;52.526;13.390;2022-11-15T00:42:13;8.70;99.90
12254;DHT22;6189;52.526;13.390;2022-11-15T00:44:59;8.80;99.90
12254;DHT22;6189;52.526;13.390;2022-11-15T00:47:44;8.60;99.90
12254;DHT22;6189;52.526;13.390;2022-11-15T00:50:30;8.60;99.90
12254;DHT22;6189;52.526;13.390;2022-11-15T00:53:16;8.60;99.90
12254;DHT22;6189;52.526;13.390;2022-11-15T00:56:01;8.70;99.90
12254;DHT22;6189;52.526;13.390;2022-11-15T00:58:48;8.70;99.90
12254;DHT22;6189;52.526;13.390;2022-11-15T01:01:34;8.80;99.90
12254;DHT22;6189;52.526;13.390;2022-11-15T01:04:20;8.70;99.90
12254;DHT22;6189;52.526;13.390;2022-11-15T01:07:05;8.60;99.90
12254;DHT22;6189;52.526;13.390;2022-11-15T01:09:51;8.60;99.90
12254;DHT22;6189;52.526;13.390;2022-11-15T01:12:36;8.50;99.90
12254;DHT22;6189;52.526;13.390;2022-11-15T01:15:24;8.40;99.90
12254;DHT22;6189;52.526;13.390;2022-11-15T01:18:09;8.40;99.90
12254;DHT22;6189;52.526;13.390;2022-11-15T01:20:55;8.40;99.90
12254;DHT22;6189;52.526;13.390;2022-11-15T01:23:40;8.40;99.90
12254;DHT22;6189;52.526;13.390;2022-11-15T01:26:26;8.40;99.90
12254;DHT22;6189;52.526;13.390;2022-11-15T01:29:12;8.40;99.90
12254;DHT22;6189;52.526;13.390;2022-11-15T01:31:59;8.40;99.90
12254;DHT22;6189;52.526;13.390;2022-11-15T01:34:44;8.40;99.90
12254;DHT22;6189;52.526;13.390;2022-11-15T01:37:30;8.30;99.90
12254;DHT22;6189;52.526;13.390;2022-11-15T01:40:15;8.30;99.90
12254;DHT22;6189;52.526;13.390;2022-11-15T01:43:19;8.50;99.90
12254;DHT22;6189;52.526;13.390;2022-11-15T01:46:12;8.30;99.90
12254;DHT22;6189;52.526;13.390;2022-11-15T01:49:11;8.30;99.90
12254;DHT22;6189;52.526;13.390;2022-11-15T01:51:58;8.30;99.90
12254;DHT22;6189;52.526;13.390;2022-11-15T01:54:46;8.30;99.90
12254;DHT22;6189;52.526;13.390;2022-11-15T01:57:32;8.30;99.90
12254;DHT22;6189;52.526;13.390;2022-11-15T02:00:19;8.40;99.90
12254;DHT22;6189;52.526;13.390;2022-11-15T02:03:05;8.30;99.90
12254;DHT22;6189;52.526;13.390;2022-11-15T02:05:53;8.30;99.90
12254;DHT22;6189;52.526;13.390;2022-11-15T02:08:39;8.30;99.90
12254;DHT22;6189;52.526;13.390;2022-11-15T02:11:24;8.30;99.90
12254;DHT22;6189;52.526;13.390;2022-11-15T02:14:10;8.30;99.90
12254;DHT22;6189;52.526;13.390;2022-11-15T02:17:01;8.30;99.90
12254;DHT22;6189;52.526;13.390;2022-11-15T02:23:32;8.30;99.90
12254;DHT22;6189;52.526;13.390;2022-11-15T02:30:22;8.30;99.90
12254;DHT22;6189;52.526;13.390;2022-11-15T02:33:16;8.30;99.90
12254;DHT22;6189;52.526;13.390;2022-11-15T02:36:11;8.30;99.90
12254;DHT22;6189;52.526;13.390;2022-11-15T02:39:02;8.30;99.90
12254;DHT22;6189;52.526;13.390;2022-11-15T02:41:53;8.30;99.90
12254;DHT22;6189;52.526;13.390;2022-11-15T02:44:44;8.40;99.90
12254;DHT22;6189;52.526;13.390;2022-11-15T02:47:33;8.20;99.90
12254;DHT22;6189;52.526;13.390;2022-11-15T02:50:24;8.20;99.90
12254;DHT22;6189;52.526;13.390;2022-11-15T02:53:10;8.20;99.90
12254;DHT22;6189;52.526;13.390;2022-11-15T02:55:56;8.10;99.90
12254;DHT22;6189;52.526;13.390;2022-11-15T02:58:56;8.10;99.90
12254;DHT22;6189;52.526;13.390;2022-11-15T03:01:55;8.10;99.90
12254;DHT22;6189;52.526;13.390;2022-11-15T03:04:52;8.20;99.90
12254;DHT22;6189;52.526;13.390;2022-11-15T03:07:44;8.10;99.90
12254;DHT22;6189;52.526;13.390;2022-11-15T03:10:42;8.20;99.90
12254;DHT22;6189;52.526;13.390;2022-11-15T03:13:36;8.20;99.90
12254;DHT22;6189;52.526;13.390;2022-11-15T03:16:27;8.20;99.90
12254;DHT22;6189;52.526;13.390;2022-11-15T03:19:19;8.20;99.90
12254;DHT22;6189;52.526;13.390;2022-11-15T03:22:11;8.20;99.90
12254;DHT22;6189;52.526;13.390;2022-11-15T03:24:59;8.30;99.90
12254;DHT22;6189;52.526;13.390;2022-11-15T03:27:50;8.30;99.90
12254;DHT22;6189;52.526;13.390;2022-11-15T03:30:38;8.30;99.90
12254;DHT22;6189;52.526;13.390;2022-11-15T03:33:25;8.30;99.90
12254;DHT22;6189;52.526;13.390;2022-11-15T03:36:12;8.30;99.90
12254;DHT22;6189;52.526;13.390;2022-11-15T03:39:02;8.30;99.90
12254;DHT22;6189;52.526;13.390;2022-11-15T03:41:50;8.30;99.90
12254;DHT22;6189;52.526;13.390;2022-11-15T03:44:44;8.30;99.90
12254;DHT22;6189;52.526;13.390;2022-11-15T03:47:34;8.30;99.90
12254;DHT22;6189;52.526;13.390;2022-11-15T03:50:21;8.30;99.90
12254;DHT22;6189;52.526;13.390;2022-11-15T03:53:07;8.30;99.90
12254;DHT22;6189;52.526;13.390;2022-11-15T03:55:54;8.30;99.90
12254;DHT22;6189;52.526;13.390;2022-11-15T03:58:40;8.30;99.90
12254;DHT22;6189;52.526;13.390;2022-11-15T04:01:25;8.30;99.90
12254;DHT22;6189;52.526;13.390;2022-11-15T04:04:11;8.30;99.90
12254;DHT22;6189;52.526;13.390;2022-11-15T04:06:56;8.30;99.90
12254;DHT22;6189;52.526;13.390;2022-11-15T04:09:42;8.20;99.90
12254;DHT22;6189;52.526;13.390;2022-11-15T04:12:44;8.20;99.90
12254;DHT22;6189;52.526;13.390;2022-11-15T04:15:31;8.30;99.90
12254;DHT22;6189;52.526;13.390;2022-11-15T04:18:17;8.20;99.90
12254;DHT22;6189;52.526;13.390;2022-11-15T04:21:02;8.30;99.90
12254;DHT22;6189;52.526;13.390;2022-11-15T04:24:17;8.20;99.90
12254;DHT22;6189;52.526;13.390;2022-11-15T04:27:03;8.30;99.90
12254;DHT22;6189;52.526;13.390;2022-11-15T04:29:49;8.20;99.90
12254;DHT22;6189;52.526;13.390;2022-11-15T04:32:35;8.20;99.90
12254;DHT22;6189;52.526;13.390;2022-11-15T04:35:20;8.20;99.90
12254;DHT22;6189;52.526;13.390;2022-11-15T04:38:07;8.20;99.90
12254;DHT22;6189;52.526;13.390;2022-11-15T04:40:53;8.20;99.90
12254;DHT22;6189;52.526;13.390;2022-11-15T04:43:38;8.20;99.90
12254;DHT22;6189;52.526;13.390;2022-11-15T04:46:26;8.30;99.90
12254;DHT22;6189;52.526;13.390;2022-11-15T04:49:11;8.20;99.90
12254;DHT22;6189;52.526;13.390;2022-11-15T04:51:57;8.20;99.90
12254;DHT22;6189;52.526;13.390;2022-11-15T04:54:42;8.20;99.90
12254;DHT22;6189;52.526;13.390;2022-11-15T04:57:28;8.20;99.90
12254;DHT22;6189;52.526;13.390;2022-11-15T05:00:16;8.20;99.90
12254;DHT22;6189;52.526;13.390;2022-11-15T05:03:03;8.20;99.90
12254;DHT22;6189;52.526;13.390;2022-11-15T05:06:06;8.20;99.90
12254;DHT22;6189;52.526;13.390;2022-11-15T05:08:52;8.10;99.90
12254;DHT22;6189;52.526;13.390;2022-11-15T05:11:38;8.20;99.90
12254;DHT22;6189;52.526;13.390;2022-11-15T05:14:23;8.10;99.90
12254;DHT22;6189;52.526;13.390;2022-11-15T05:17:09;8.20;99.90
12254;DHT22;6189;52.526;13.390;2022-11-15T05:19:56;8.10;99.90
12254;DHT22;6189;52.526;13.390;2022-11-15T05:22:41;8.00;99.90
12254;DHT22;6189;52.526;13.390;2022-11-15T05:25:27;8.00;99.90
12254;DHT22;6189;52.526;13.390;2022-11-15T05:28:13;8.00;99.90
12254;DHT22;6189;52.526;13.390;2022-11-15T05:31:00;8.10;99.90
12254;DHT22;6189;52.526;13.390;2022-11-15T05:33:46;8.00;99.90
12254;DHT22;6189;52.526;13.390;2022-11-15T05:36:37;8.10;99.90
12254;DHT22;6189;52.526;13.390;2022-11-15T05:39:23;8.10;99.90
12254;DHT22;6189;52.526;13.390;2022-11-15T05:42:12;8.10;99.90
12254;DHT22;6189;52.526;13.390;2022-11-15T05:44:58;8.10;99.90
12254;DHT22;6189;52.526;13.390;2022-11-15T05:47:46;8.10;99.90
12254;DHT22;6189;52.526;13.390;2022-11-15T05:50:33;8.00;99.90
12254;DHT22;6189;52.526;13.390;2022-11-15T05:53:23;8.00;99.90
12254;DHT22;6189;52.526;13.390;2022-11-15T05:56:10;8.20;99.90
12254;DHT22;6189;52.526;13.390;2022-11-15T05:58:56;8.20;99.90
12254;DHT22;6189;52.526;13.390;2022-11-15T06:01:42;8.20;99.90
12254;DHT22;6189;52.526;13.390;2022-11-15T06:04:28;8.10;99.90
12254;DHT22;6189;52.526;13.390;2022-11-15T06:07:13;8.20;99.90
12254;DHT22;6189;52.526;13.390;2022-11-15T06:10:00;8.20;99.90
12254;DHT22;6189;52.526;13.390;2022-11-15T06:12:45;8.10;99.90
12254;DHT22;6189;52.526;13.390;2022-11-15T06:15:32;8.30;99.90
12254;DHT22;6189;52.526;13.390;2022-11-15T06:18:17;8.20;99.90
12254;DHT22;6189;52.526;13.390;2022-11-15T06:21:03;8.20;99.90
12254;DHT22;6189;52.526;13.390;2022-11-15T06:23:49;8.30;99.90
12254;DHT22;6189;52.526;13.390;2022-11-15T06:26:36;8.20;99.90
12254;DHT22;6189;52.526;13.390;2022-11-15T06:29:21;8.20;99.90
12254;DHT22;6189;52.526;13.390;2022-11-15T06:32:07;8.20;99.90
12254;DHT22;6189;52.526;13.390;2022-11-15T06:34:52;8.20;99.90
12254;DHT22;6189;52.526;13.390;2022-11-15T06:37:38;8.20;99.90
12254;DHT22;6189;52.526;13.390;2022-11-15T06:40:23;8.20;99.90
12254;DHT22;6189;52.526;13.390;2022-11-15T06:43:10;8.30;99.90
12254;DHT22;6189;52.526;13.390;2022-11-15T06:45:57;8.20;99.90
12254;DHT22;6189;52.526;13.390;2022-11-15T06:48:43;8.20;99.90
12254;DHT22;6189;52.526;13.390;2022-11-15T06:51:28;8.20;99.90
12254;DHT22;6189;52.526;13.390;2022-11-15T06:54:14;8.20;99.90
12254;DHT22;6189;52.526;13.390;2022-11-15T06:56:59;8.20;99.90
12254;DHT22;6189;52.526;13.390;2022-11-15T06:59:46;8.20;99.90
12254;DHT22;6189;52.526;13.390;2022-11-15T07:02:32;8.10;99.90
12254;DHT22;6189;52.526;13.390;2022-11-15T07:05:17;8.10;99.90
12254;DHT22;6189;52.526;13.390;2022-11-15T07:08:03;8.10;99.90
12254;DHT22;6189;52.526;13.390;2022-11-15T07:10:49;8.00;99.90
12254;DHT22;6189;52.526;13.390;2022-11-15T07:13:35;8.10;99.90
12254;DHT22;6189;52.526;13.390;2022-11-15T07:16:22;8.10;99.90
12254;DHT22;6189;52.526;13.390;2022-11-15T07:19:08;8.10;99.90
12254;DHT22;6189;52.526;13.390;2022-11-15T07:21:54;8.20;99.90
12254;DHT22;6189;52.526;13.390;2022-11-15T07:24:40;8.10;99.90
12254;DHT22;6189;52.526;13.390;2022-11-15T07:27:25;8.10;99.90
12254;DHT22;6189;52.526;13.390;2022-11-15T07:30:12;8.10;99.90
12254;DHT22;6189;52.526;13.390;2022-11-15T07:33:00;8.10;99.90
12254;DHT22;6189;52.526;13.390;2022-11-15T07:35:45;8.10;99.90
12254;DHT22;6189;52.526;13.390;2022-11-15T07:38:35;8.10;99.90
12254;DHT22;6189;52.526;13.390;2022-11-15T07:41:20;8.10;99.90
12254;DHT22;6189;52.526;13.390;2022-11-15T07:44:06;8.20;99.90
12254;DHT22;6189;52.526;13.390;2022-11-15T07:46:52;8.30;99.90
12254;DHT22;6189;52.526;13.390;2022-11-15T07:49:38;8.20;99.90
12254;DHT22;6189;52.526;13.390;2022-11-15T07:52:24;8.30;99.90
12254;DHT22;6189;52.526;13.390;2022-11-15T07:55:09;8.30;99.90
12254;DHT22;6189;52.526;13.390;2022-11-15T07:58:00;8.30;99.90
12254;DHT22;6189;52.526;13.390;2022-11-15T08:00:46;8.30;99.90
12254;DHT22;6189;52.526;13.390;2022-11-15T08:03:32;8.30;99.90
12254;DHT22;6189;52.526;13.390;2022-11-15T08:06:19;8.30;99.90
12254;DHT22;6189;52.526;13.390;2022-11-15T08:09:05;8.30;99.90
12254;DHT22;6189;52.526;13.390;2022-11-15T08:11:50;8.30;99.90
12254;DHT22;6189;52.526;13.390;2022-11-15T08:14:36;8.30;99.90
12254;DHT22;6189;52.526;13.390;2022-11-15T08:17:22;8.40;99.90
12254;DHT22;6189;52.526;13.390;2022-11-15T08:20:09;8.60;99.90
12254;DHT22;6189;52.526;13.390;2022-11-15T08:26:40;8.50;99.90
12254;DHT22;6189;52.526;13.390;2022-11-15T08:29:25;8.50;99.90
12254;DHT22;6189;52.526;13.390;2022-11-15T08:32:11;8.60;99.90
12254;DHT22;6189;52.526;13.390;2022-11-15T08:34:57;8.60;99.90
12254;DHT22;6189;52.526;13.390;2022-11-15T08:37:42;8.70;99.90
12254;DHT22;6189;52.526;13.390;2022-11-15T08:40:28;8.80;99.90
12254;DHT22;6189;52.526;13.390;2022-11-15T08:43:15;8.80;99.90
12254;DHT22;6189;52.526;13.390;2022-11-15T08:46:00;8.90;99.90
12254;DHT22;6189;52.526;13.390;2022-11-15T08:48:46;9.00;99.90
12254;DHT22;6189;52.526;13.390;2022-11-15T08:51:31;9.00;99.90
12254;DHT22;6189;52.526;13.390;2022-11-15T08:54:17;9.00;99.90
12254;DHT22;6189;52.526;13.390;2022-11-15T08:57:02;8.90;99.90
12254;DHT22;6189;52.526;13.390;2022-11-15T08:59:50;9.10;99.90
12254;DHT22;6189;52.526;13.390;2022-11-15T09:02:37;9.10;99.90
12254;DHT22;6189;52.526;13.390;2022-11-15T09:05:22;9.20;99.90
12254;DHT22;6189;52.526;13.390;2022-11-15T09:08:08;9.20;99.90
12254;DHT22;6189;52.526;13.390;2022-11-15T09:10:54;9.30;99.90
12254;DHT22;6189;52.526;13.390;2022-11-15T09:13:39;9.30;99.90
12254;DHT22;6189;52.526;13.390;2022-11-15T09:16:26;9.30;99.90
12254;DHT22;6189;52.526;13.390;2022-11-15T09:19:12;9.40;99.90
12254;DHT22;6189;52.526;13.390;2022-11-15T09:21:58;9.50;99.90
12254;DHT22;6189;52.526;13.390;2022-11-15T09:24:44;9.50;99.90
12254;DHT22;6189;52.526;13.390;2022-11-15T09:27:30;9.50;99.90
12254;DHT22;6189;52.526;13.390;2022-11-15T09:30:16;9.60;99.90
12254;DHT22;6189;52.526;13.390;2022-11-15T09:33:07;9.60;99.90
12254;DHT22;6189;52.526;13.390;2022-11-15T09:35:53;9.70;99.90
12254;DHT22;6189;52.526;13.390;2022-11-15T09:38:38;9.80;99.90
12254;DHT22;6189;52.526;13.390;2022-11-15T09:44:56;9.80;99.90
12254;DHT22;6189;52.526;13.390;2022-11-15T09:48:11;9.90;99.90
12254;DHT22;6189;52.526;13.390;2022-11-15T09:51:03;10.00;99.90
12254;DHT22;6189;52.526;13.390;2022-11-15T09:53:56;10.10;99.90
12254;DHT22;6189;52.526;13.390;2022-11-15T09:56:44;10.10;99.90
12254;DHT22;6189;52.526;13.390;2022-11-15T10:00:07;10.20;99.90
12254;DHT22;6189;52.526;13.390;2022-11-15T10:03:03;10.20;99.90
12254;DHT22;6189;52.526;13.390;2022-11-15T10:05:56;10.30;99.90
12254;DHT22;6189;52.526;13.390;2022-11-15T10:08:51;10.30;99.90
12254;DHT22;6189;52.526;13.390;2022-11-15T10:11:40;10.40;99.90
12254;DHT22;6189;52.526;13.390;2022-11-15T10:14:28;10.40;99.90
12254;DHT22;6189;52.526;13.390;2022-11-15T10:17:35;10.50;99.90
12254;DHT22;6189;52.526;13.390;2022-11-15T10:20:24;10.60;99.90
12254;DHT22;6189;52.526;13.390;2022-11-15T10:23:14;10.70;99.90
12254;DHT22;6189;52.526;13.390;2022-11-15T10:26:01;10.70;99.90
12254;DHT22;6189;52.526;13.390;2022-11-15T10:28:46;10.80;99.90
12254;DHT22;6189;52.526;13.390;2022-11-15T10:31:32;10.80;99.90
12254;DHT22;6189;52.526;13.390;2022-11-15T10:34:19;10.80;99.90
12254;DHT22;6189;52.526;13.390;2022-11-15T10:37:04;10.90;99.90
12254;DHT22;6189;52.526;13.390;2022-11-15T10:40:03;10.90;99.90
12254;DHT22;6189;52.526;13.390;2022-11-15T10:43:03;11.00;99.90
12254;DHT22;6189;52.526;13.390;2022-11-15T10:45:49;11.10;99.90
12254;DHT22;6189;52.526;13.390;2022-11-15T10:48:37;11.10;99.90
12254;DHT22;6189;52.526;13.390;2022-11-15T10:51:26;11.20;99.90
12254;DHT22;6189;52.526;13.390;2022-11-15T10:54:14;11.10;99.90
12254;DHT22;6189;52.526;13.390;2022-11-15T10:57:07;11.20;99.90
12254;DHT22;6189;52.526;13.390;2022-11-15T10:59:56;11.30;99.90
12254;DHT22;6189;52.526;13.390;2022-11-15T11:02:55;11.40;99.90
12254;DHT22;6189;52.526;13.390;2022-11-15T11:05:41;11.40;99.90
12254;DHT22;6189;52.526;13.390;2022-11-15T11:08:27;11.60;99.90
12254;DHT22;6189;52.526;13.390;2022-11-15T11:11:12;11.70;99.90
12254;DHT22;6189;52.526;13.390;2022-11-15T11:14:11;11.70;99.90
12254;DHT22;6189;52.526;13.390;2022-11-15T11:17:02;11.70;99.90
12254;DHT22;6189;52.526;13.390;2022-11-15T11:19:59;11.70;99.90
12254;DHT22;6189;52.526;13.390;2022-11-15T11:23:00;11.70;99.90
12254;DHT22;6189;52.526;13.390;2022-11-15T11:25:52;11.80;99.90
12254;DHT22;6189;52.526;13.390;2022-11-15T11:28:44;12.00;99.90
12254;DHT22;6189;52.526;13.390;2022-11-15T11:31:41;11.90;99.90
12254;DHT22;6189;52.526;13.390;2022-11-15T11:34:41;12.00;99.90
12254;DHT22;6189;52.526;13.390;2022-11-15T11:37:37;12.00;99.90
12254;DHT22;6189;52.526;13.390;2022-11-15T11:40:29;12.00;99.90
12254;DHT22;6189;52.526;13.390;2022-11-15T11:43:24;12.00;99.90
12254;DHT22;6189;52.526;13.390;2022-11-15T11:46:26;12.00;99.90
12254;DHT22;6189;52.526;13.390;2022-11-15T11:49:21;12.10;99.90
12254;DHT22;6189;52.526;13.390;2022-11-15T11:52:11;12.10;99.90
12254;DHT22;6189;52.526;13.390;2022-11-15T11:55:03;12.10;99.90
12254;DHT22;6189;52.526;13.390;2022-11-15T11:57:56;12.20;99.90
12254;DHT22;6189;52.526;13.390;2022-11-15T12:00:49;12.20;99.90
12254;DHT22;6189;52.526;13.390;2022-11-15T12:03:40;12.20;99.90
12254;DHT22;6189;52.526;13.390;2022-11-15T12:06:32;12.20;99.90
12254;DHT22;6189;52.526;13.390;2022-11-15T12:09:30;12.30;99.90
12254;DHT22;6189;52.526;13.390;2022-11-15T12:12:21;12.30;99.90
12254;DHT22;6189;52.526;13.390;2022-11-15T12:15:14;12.30;99.90
12254;DHT22;6189;52.526;13.390;2022-11-15T12:18:01;12.40;99.90
12254;DHT22;6189;52.526;13.390;2022-11-15T12:20:52;12.50;99.90
12254;DHT22;6189;52.526;13.390;2022-11-15T12:23:44;12.50;99.90
12254;DHT22;6189;52.526;13.390;2022-11-15T12:26:35;12.50;99.90
12254;DHT22;6189;52.526;13.390;2022-11-15T12:29:26;12.50;99.90
12254;DHT22;6189;52.526;13.390;2022-11-15T12:32:24;12.60;99.90
12254;DHT22;6189;52.526;13.390;2022-11-15T12:35:26;12.60;99.90
12254;DHT22;6189;52.526;13.390;2022-11-15T12:38:12;12.60;99.90
12254;DHT22;6189;52.526;13.390;2022-11-15T12:41:20;12.60;99.90
12254;DHT22;6189;52.526;13.390;2022-11-15T12:44:10;12.60;99.90
12254;DHT22;6189;52.526;13.390;2022-11-15T12:47:04;12.60;99.90
12254;DHT22;6189;52.526;13.390;2022-11-15T12:50:12;12.70;99.90
12254;DHT22;6189;52.526;13.390;2022-11-15T12:53:29;12.70;99.90
12254;DHT22;6189;52.526;13.390;2022-11-15T12:56:21;12.90;99.90
12254;DHT22;6189;52.526;13.390;2022-11-15T12:59:08;13.00;99.90
12254;DHT22;6189;52.526;13.390;2022-11-15T13:01:59;13.10;99.90
12254;DHT22;6189;52.526;13.390;2022-11-15T13:04:44;13.20;99.90
12254;DHT22;6189;52.526;13.390;2022-11-15T13:07:58;13.20;99.90
12254;DHT22;6189;52.526;13.390;2022-11-15T13:10:44;13.30;99.90
12254;DHT22;6189;52.526;13.390;2022-11-15T13:13:44;13.20;99.90
12254;DHT22;6189;52.526;13.390;2022-11-15T13:16:30;13.20;99.90
12254;DHT22;6189;52.526;13.390;2022-11-15T13:19:24;13.20;99.90
12254;DHT22;6189;52.526;13.390;2022-11-15T13:22:11;13.20;99.90
12254;DHT22;6189;52.526;13.390;2022-11-15T13:25:16;13.20;99.90
12254;DHT22;6189;52.526;13.390;2022-11-15T13:28:11;13.20;99.90
12254;DHT22;6189;52.526;13.390;2022-11-15T13:34:29;13.20;99.90
12254;DHT22;6189;52.526;13.390;2022-11-15T13:37:29;13.10;99.90
12254;DHT22;6189;52.526;13.390;2022-11-15T13:40:21;13.00;99.90
12254;DHT22;6189;52.526;13.390;2022-11-15T13:43:23;13.00;99.90
12254;DHT22;6189;52.526;13.390;2022-11-15T13:46:15;12.90;99.90
12254;DHT22;6189;52.526;13.390;2022-11-15T13:49:03;13.00;99.90
12254;DHT22;6189;52.526;13.390;2022-11-15T13:51:51;13.00;99.90
12254;DHT22;6189;52.526;13.390;2022-11-15T13:54:42;13.00;99.90
12254;DHT22;6189;52.526;13.390;2022-11-15T13:57:33;12.90;99.90
12254;DHT22;6189;52.526;13.390;2022-11-15T14:00:32;12.90;99.90
12254;DHT22;6189;52.526;13.390;2022-11-15T14:03:20;12.90;99.90
12254;DHT22;6189;52.526;13.390;2022-11-15T14:06:09;13.00;99.90
12254;DHT22;6189;52.526;13.390;2022-11-15T14:09:14;13.00;99.90
12254;DHT22;6189;52.526;13.390;2022-11-15T14:12:01;13.00;99.90
12254;DHT22;6189;52.526;13.390;2022-11-15T14:14:47;13.00;99.90
12254;DHT22;6189;52.526;13.390;2022-11-15T14:17:37;13.00;99.90
12254;DHT22;6189;52.526;13.390;2022-11-15T14:20:29;13.00;99.90
12254;DHT22;6189;52.526;13.390;2022-11-15T14:23:24;13.00;99.90
12254;DHT22;6189;52.526;13.390;2022-11-15T14:26:28;13.00;99.90
12254;DHT22;6189;52.526;13.390;2022-11-15T14:29:24;13.00;99.90
12254;DHT22;6189;52.526;13.390;2022-11-15T14:32:13;13.20;99.90
12254;DHT22;6189;52.526;13.390;2022-11-15T14:35:01;13.20;99.90
12254;DHT22;6189;52.526;13.390;2022-11-15T14:37:48;13.20;99.90
12254;DHT22;6189;52.526;13.390;2022-11-15T14:40:33;13.30;99.90
12254;DHT22;6189;52.526;13.390;2022-11-15T14:43:20;13.30;99.90
12254;DHT22;6189;52.526;13.390;2022-11-15T14:46:06;13.30;99.90
12254;DHT22;6189;52.526;13.390;2022-11-15T14:48:51;13.30;99.90
12254;DHT22;6189;52.526;13.390;2022-11-15T14:51:37;13.30;99.90
12254;DHT22;6189;52.526;13.390;2022-11-15T14:54:22;13.20;99.90
12254;DHT22;6189;52.526;13.390;2022-11-15T14:57:07;13.30;99.90
12254;DHT22;6189;52.526;13.390;2022-11-15T14:59:54;13.20;99.90
12254;DHT22;6189;52.526;13.390;2022-11-15T15:02:42;13.20;99.90
12254;DHT22;6189;52.526;13.390;2022-11-15T15:05:31;13.20;99.90
12254;DHT22;6189;52.526;13.390;2022-11-15T15:08:17;13.20;99.90
12254;DHT22;6189;52.526;13.390;2022-11-15T15:11:08;13.20;99.90
12254;DHT22;6189;52.526;13.390;2022-11-15T15:13:56;13.20;99.90
12254;DHT22;6189;52.526;13.390;2022-11-15T15:16:45;13.20;99.90
12254;DHT22;6189;52.526;13.390;2022-11-15T15:19:31;13.10;99.90
12254;DHT22;6189;52.526;13.390;2022-11-15T15:22:18;13.10;99.90
12254;DHT22;6189;52.526;13.390;2022-11-15T15:25:20;13.10;99.90
12254;DHT22;6189;52.526;13.390;2022-11-15T15:28:06;13.10;99.90
12254;DHT22;6189;52.526;13.390;2022-11-15T15:30:51;13.00;99.90
12254;DHT22;6189;52.526;13.390;2022-11-15T15:33:39;13.00;99.90
12254;DHT22;6189;52.526;13.390;2022-11-15T15:36:24;13.00;99.90
12254;DHT22;6189;52.526;13.390;2022-11-15T15:39:10;13.10;99.90
12254;DHT22;6189;52.526;13.390;2022-11-15T15:41:56;12.90;99.90
12254;DHT22;6189;52.526;13.390;2022-11-15T15:44:42;12.90;99.90
12254;DHT22;6189;52.526;13.390;2022-11-15T15:47:27;12.90;99.90
12254;DHT22;6189;52.526;13.390;2022-11-15T15:50:20;12.90;99.90
12254;DHT22;6189;52.526;13.390;2022-11-15T15:53:06;12.90;99.90
12254;DHT22;6189;52.526;13.390;2022-11-15T15:55:52;12.90;99.90
12254;DHT22;6189;52.526;13.390;2022-11-15T15:58:38;12.90;99.90
12254;DHT22;6189;52.526;13.390;2022-11-15T16:01:24;12.90;99.90
12254;DHT22;6189;52.526;13.390;2022-11-15T16:04:10;12.90;99.90
12254;DHT22;6189;52.526;13.390;2022-11-15T16:07:00;12.80;99.90
12254;DHT22;6189;52.526;13.390;2022-11-15T16:09:47;12.80;99.90
12254;DHT22;6189;52.526;13.390;2022-11-15T16:12:47;12.80;99.90
12254;DHT22;6189;52.526;13.390;2022-11-15T16:15:33;12.80;99.90
12254;DHT22;6189;52.526;13.390;2022-11-15T16:18:20;12.70;99.90
12254;DHT22;6189;52.526;13.390;2022-11-15T16:21:07;12.80;99.90
12254;DHT22;6189;52.526;13.390;2022-11-15T16:23:54;12.70;99.90
12254;DHT22;6189;52.526;13.390;2022-11-15T16:26:40;12.40;99.90
12254;DHT22;6189;52.526;13.390;2022-11-15T16:29:26;12.50;99.90
12254;DHT22;6189;52.526;13.390;2022-11-15T16:32:12;12.50;99.90
12254;DHT22;6189;52.526;13.390;2022-11-15T16:34:58;12.40;99.90
12254;DHT22;6189;52.526;13.390;2022-11-15T16:37:43;12.40;99.90
12254;DHT22;6189;52.526;13.390;2022-11-15T16:40:33;12.40;99.90
12254;DHT22;6189;52.526;13.390;2022-11-15T16:43:19;12.40;99.90
12254;DHT22;6189;52.526;13.390;2022-11-15T16:46:08;12.30;99.90
12254;DHT22;6189;52.526;13.390;2022-11-15T16:48:57;12.30;99.90
12254;DHT22;6189;52.526;13.390;2022-11-15T16:51:44;12.20;99.90
12254;DHT22;6189;52.526;13.390;2022-11-15T16:54:30;12.10;99.90
12254;DHT22;6189;52.526;13.390;2022-11-15T16:57:17;12.10;99.90
12254;DHT22;6189;52.526;13.390;2022-11-15T17:00:03;12.00;99.90
12254;DHT22;6189;52.526;13.390;2022-11-15T17:02:50;11.90;99.90
12254;DHT22;6189;52.526;13.390;2022-11-15T17:05:35;11.80;99.90
12254;DHT22;6189;52.526;13.390;2022-11-15T17:08:21;11.60;99.90
12254;DHT22;6189;52.526;13.390;2022-11-15T17:11:08;11.50;99.90
12254;DHT22;6189;52.526;13.390;2022-11-15T17:13:58;11.50;99.90
12254;DHT22;6189;52.526;13.390;2022-11-15T17:16:44;11.50;99.90
12254;DHT22;6189;52.526;13.390;2022-11-15T17:19:30;11.50;99.90
12254;DHT22;6189;52.526;13.390;2022-11-15T17:22:16;11.50;99.90
12254;DHT22;6189;52.526;13.390;2022-11-15T17:25:01;11.40;99.90
12254;DHT22;6189;52.526;13.390;2022-11-15T17:27:47;11.40;99.90
12254;DHT22;6189;52.526;13.390;2022-11-15T17:30:34;11.30;99.90
12254;DHT22;6189;52.526;13.390;2022-11-15T17:33:20;11.40;99.90
12254;DHT22;6189;52.526;13.390;2022-11-15T17:36:09;11.40;99.90
12254;DHT22;6189;52.526;13.390;2022-11-15T17:38:55;11.40;99.90
12254;DHT22;6189;52.526;13.390;2022-11-15T17:41:41;11.40;99.90
12254;DHT22;6189;52.526;13.390;2022-11-15T17:44:26;11.50;99.90
12254;DHT22;6189;52.526;13.390;2022-11-15T17:47:13;11.50;99.90
12254;DHT22;6189;52.526;13.390;2022-11-15T17:49:59;11.50;99.90
12254;DHT22;6189;52.526;13.390;2022-11-15T17:52:44;11.40;99.90
12254;DHT22;6189;52.526;13.390;2022-11-15T17:55:31;11.40;99.90
12254;DHT22;6189;52.526;13.390;2022-11-15T17:58:17;11.40;99.90
12254;DHT22;6189;52.526;13.390;2022-11-15T18:01:07;11.40;99.90
12254;DHT22;6189;52.526;13.390;2022-11-15T18:03:54;11.40;99.90
12254;DHT22;6189;52.526;13.390;2022-11-15T18:06:40;11.40;99.90
12254;DHT22;6189;52.526;13.390;2022-11-15T18:09:26;11.40;99.90
12254;DHT22;6189;52.526;13.390;2022-11-15T18:12:12;11.40;99.90
12254;DHT22;6189;52.526;13.390;2022-11-15T18:14:58;11.30;99.90